sensor_id;sensor_type;location;lat;lon;timestamp;P1;durP1;ratioP1;P2;durP2;ratioP2
71867;SDS011;59738;48.324;14.230;2022-08-01T00:02:00;3.35;;;2.83;;
71867;SDS011;59738;48.324;14.230;2022-08-01T00:04:27;3.53;;;3.00;;
71867;SDS011;59738;48.324;14.230;2022-08-01T00:06:55;4.17;;;3.10;;
71867;SDS011;59738;48.324;14.230;2022-08-01T00:09:23;3.65;;;2.70;;
71867;SDS011;59738;48.324;14.230;2022-08-01T00:11:51;2.50;;;2.30;;
71867;SDS011;59738;48.324;14.230;2022-08-01T00:14:18;5.85;;;2.45;;
71867;SDS011;59738;48.324;14.230;2022-08-01T00:16:46;3.58;;;2.65;;
71867;SDS011;59738;48.324;14.230;2022-08-01T00:19:15;3.10;;;2.33;;
71867;SDS011;59738;48.324;14.230;2022-08-01T00:21:43;3.30;;;2.65;;
71867;SDS011;59738;48.324;14.230;2022-08-01T00:24:10;3.20;;;2.47;;
71867;SDS011;59738;48.324;14.230;2022-08-01T00:26:38;3.88;;;2.88;;
71867;SDS011;59738;48.324;14.230;2022-08-01T00:29:06;3.50;;;2.50;;
71867;SDS011;59738;48.324;14.230;2022-08-01T00:31:34;4.27;;;2.70;;
71867;SDS011;59738;48.324;14.230;2022-08-01T00:34:01;3.13;;;2.67;;
71867;SDS011;59738;48.324;14.230;2022-08-01T00:36:30;3.28;;;2.30;;
71867;SDS011;59738;48.324;14.230;2022-08-01T00:38:58;2.58;;;2.38;;
71867;SDS011;59738;48.324;14.230;2022-08-01T00:41:26;6.38;;;2.83;;
71867;SDS011;59738;48.324;14.230;2022-08-01T00:43:53;3.27;;;2.70;;
71867;SDS011;59738;48.324;14.230;2022-08-01T00:46:21;3.20;;;2.90;;
71867;SDS011;59738;48.324;14.230;2022-08-01T00:48:49;2.85;;;2.55;;
71867;SDS011;59738;48.324;14.230;2022-08-01T00:51:17;2.70;;;2.50;;
71867;SDS011;59738;48.324;14.230;2022-08-01T00:53:46;5.13;;;3.10;;
71867;SDS011;59738;48.324;14.230;2022-08-01T00:56:13;3.30;;;2.80;;
71867;SDS011;59738;48.324;14.230;2022-08-01T00:58:41;3.25;;;2.50;;
71867;SDS011;59738;48.324;14.230;2022-08-01T01:01:09;4.53;;;3.03;;
71867;SDS011;59738;48.324;14.230;2022-08-01T01:03:37;5.80;;;2.90;;
71867;SDS011;59738;48.324;14.230;2022-08-01T01:06:10;3.47;;;2.70;;
71867;SDS011;59738;48.324;14.230;2022-08-01T01:08:47;3.87;;;2.63;;
71867;SDS011;59738;48.324;14.230;2022-08-01T01:11:21;9.25;;;2.80;;
71867;SDS011;59738;48.324;14.230;2022-08-01T01:13:57;4.40;;;2.78;;
71867;SDS011;59738;48.324;14.230;2022-08-01T01:16:31;5.10;;;2.70;;
71867;SDS011;59738;48.324;14.230;2022-08-01T01:19:01;3.85;;;2.50;;
71867;SDS011;59738;48.324;14.230;2022-08-01T01:21:42;5.97;;;2.63;;
71867;SDS011;59738;48.324;14.230;2022-08-01T01:24:28;5.10;;;3.15;;
71867;SDS011;59738;48.324;14.230;2022-08-01T01:27:06;5.38;;;3.17;;
71867;SDS011;59738;48.324;14.230;2022-08-01T01:29:42;4.45;;;3.20;;
71867;SDS011;59738;48.324;14.230;2022-08-01T01:32:14;3.97;;;3.17;;
71867;SDS011;59738;48.324;14.230;2022-08-01T01:34:47;8.63;;;3.07;;
71867;SDS011;59738;48.324;14.230;2022-08-01T01:37:17;4.28;;;3.30;;
71867;SDS011;59738;48.324;14.230;2022-08-01T01:39:48;4.20;;;3.05;;
71867;SDS011;59738;48.324;14.230;2022-08-01T01:42:18;6.95;;;4.00;;
71867;SDS011;59738;48.324;14.230;2022-08-01T01:44:48;5.88;;;4.30;;
71867;SDS011;59738;48.324;14.230;2022-08-01T01:47:18;6.33;;;4.40;;
71867;SDS011;59738;48.324;14.230;2022-08-01T01:49:46;12.65;;;5.07;;
71867;SDS011;59738;48.324;14.230;2022-08-01T01:52:15;10.93;;;5.45;;
71867;SDS011;59738;48.324;14.230;2022-08-01T01:54:44;8.30;;;5.07;;
71867;SDS011;59738;48.324;14.230;2022-08-01T01:57:14;9.98;;;5.80;;
71867;SDS011;59738;48.324;14.230;2022-08-01T01:59:44;7.90;;;4.80;;
71867;SDS011;59738;48.324;14.230;2022-08-01T02:02:16;10.27;;;5.13;;
71867;SDS011;59738;48.324;14.230;2022-08-01T02:04:46;8.30;;;4.82;;
71867;SDS011;59738;48.324;14.230;2022-08-01T02:07:16;6.75;;;4.88;;
71867;SDS011;59738;48.324;14.230;2022-08-01T02:09:46;8.77;;;4.72;;
71867;SDS011;59738;48.324;14.230;2022-08-01T02:12:15;6.87;;;4.60;;
71867;SDS011;59738;48.324;14.230;2022-08-01T02:14:47;7.88;;;4.72;;
71867;SDS011;59738;48.324;14.230;2022-08-01T02:17:18;8.13;;;4.95;;
71867;SDS011;59738;48.324;14.230;2022-08-01T02:19:48;7.75;;;5.10;;
71867;SDS011;59738;48.324;14.230;2022-08-01T02:22:18;8.38;;;5.05;;
71867;SDS011;59738;48.324;14.230;2022-08-01T02:24:52;8.00;;;5.17;;
71867;SDS011;59738;48.324;14.230;2022-08-01T02:27:28;9.52;;;5.82;;
71867;SDS011;59738;48.324;14.230;2022-08-01T02:30:01;10.07;;;5.63;;
71867;SDS011;59738;48.324;14.230;2022-08-01T02:32:33;12.95;;;6.88;;
71867;SDS011;59738;48.324;14.230;2022-08-01T02:35:05;14.85;;;8.35;;
71867;SDS011;59738;48.324;14.230;2022-08-01T02:37:37;18.63;;;8.87;;
71867;SDS011;59738;48.324;14.230;2022-08-01T02:40:06;17.58;;;9.00;;
71867;SDS011;59738;48.324;14.230;2022-08-01T02:42:37;22.33;;;10.70;;
71867;SDS011;59738;48.324;14.230;2022-08-01T02:45:09;26.17;;;11.00;;
71867;SDS011;59738;48.324;14.230;2022-08-01T02:47:40;20.67;;;10.05;;
71867;SDS011;59738;48.324;14.230;2022-08-01T02:50:11;22.33;;;10.67;;
71867;SDS011;59738;48.324;14.230;2022-08-01T02:52:40;26.17;;;10.93;;
71867;SDS011;59738;48.324;14.230;2022-08-01T02:55:10;20.88;;;10.27;;
71867;SDS011;59738;48.324;14.230;2022-08-01T02:57:39;19.55;;;9.75;;
71867;SDS011;59738;48.324;14.230;2022-08-01T03:00:09;17.85;;;9.02;;
71867;SDS011;59738;48.324;14.230;2022-08-01T03:02:37;18.60;;;9.30;;
71867;SDS011;59738;48.324;14.230;2022-08-01T03:05:08;15.50;;;8.65;;
71867;SDS011;59738;48.324;14.230;2022-08-01T03:07:38;19.67;;;8.40;;
71867;SDS011;59738;48.324;14.230;2022-08-01T03:10:07;18.85;;;8.82;;
71867;SDS011;59738;48.324;14.230;2022-08-01T03:12:37;19.08;;;9.07;;
71867;SDS011;59738;48.324;14.230;2022-08-01T03:15:07;17.90;;;9.20;;
71867;SDS011;59738;48.324;14.230;2022-08-01T03:17:37;15.93;;;8.43;;
71867;SDS011;59738;48.324;14.230;2022-08-01T03:20:09;15.77;;;8.70;;
71867;SDS011;59738;48.324;14.230;2022-08-01T03:22:39;14.63;;;8.07;;
71867;SDS011;59738;48.324;14.230;2022-08-01T03:25:09;15.18;;;8.07;;
71867;SDS011;59738;48.324;14.230;2022-08-01T03:27:39;12.00;;;7.80;;
71867;SDS011;59738;48.324;14.230;2022-08-01T03:30:09;13.00;;;7.85;;
71867;SDS011;59738;48.324;14.230;2022-08-01T03:32:38;14.25;;;7.85;;
71867;SDS011;59738;48.324;14.230;2022-08-01T03:35:06;14.98;;;7.13;;
71867;SDS011;59738;48.324;14.230;2022-08-01T03:37:36;12.65;;;7.15;;
71867;SDS011;59738;48.324;14.230;2022-08-01T03:40:09;11.47;;;7.23;;
71867;SDS011;59738;48.324;14.230;2022-08-01T03:42:42;14.70;;;6.78;;
71867;SDS011;59738;48.324;14.230;2022-08-01T03:45:15;9.88;;;6.53;;
71867;SDS011;59738;48.324;14.230;2022-08-01T03:47:48;11.40;;;6.50;;
71867;SDS011;59738;48.324;14.230;2022-08-01T03:50:21;9.80;;;6.68;;
71867;SDS011;59738;48.324;14.230;2022-08-01T03:52:50;17.13;;;6.17;;
71867;SDS011;59738;48.324;14.230;2022-08-01T03:55:20;10.63;;;5.88;;
71867;SDS011;59738;48.324;14.230;2022-08-01T03:57:51;12.13;;;5.53;;
71867;SDS011;59738;48.324;14.230;2022-08-01T04:00:19;7.85;;;5.43;;
71867;SDS011;59738;48.324;14.230;2022-08-01T04:02:48;8.32;;;5.38;;
71867;SDS011;59738;48.324;14.230;2022-08-01T04:05:17;9.57;;;5.93;;
71867;SDS011;59738;48.324;14.230;2022-08-01T04:07:46;10.20;;;5.43;;
71867;SDS011;59738;48.324;14.230;2022-08-01T04:10:21;6.78;;;5.22;;
71867;SDS011;59738;48.324;14.230;2022-08-01T04:12:49;9.93;;;6.00;;
71867;SDS011;59738;48.324;14.230;2022-08-01T04:15:17;7.18;;;5.30;;
71867;SDS011;59738;48.324;14.230;2022-08-01T04:17:46;15.60;;;5.23;;
71867;SDS011;59738;48.324;14.230;2022-08-01T04:20:14;9.38;;;5.35;;
71867;SDS011;59738;48.324;14.230;2022-08-01T04:22:42;11.05;;;5.75;;
71867;SDS011;59738;48.324;14.230;2022-08-01T04:25:13;10.00;;;6.30;;
71867;SDS011;59738;48.324;14.230;2022-08-01T04:27:45;9.55;;;6.10;;
71867;SDS011;59738;48.324;14.230;2022-08-01T04:30:16;10.10;;;5.63;;
71867;SDS011;59738;48.324;14.230;2022-08-01T04:32:46;8.13;;;5.47;;
71867;SDS011;59738;48.324;14.230;2022-08-01T04:35:15;11.05;;;6.53;;
71867;SDS011;59738;48.324;14.230;2022-08-01T04:37:46;11.23;;;5.50;;
71867;SDS011;59738;48.324;14.230;2022-08-01T04:40:18;10.07;;;5.30;;
71867;SDS011;59738;48.324;14.230;2022-08-01T04:42:48;7.80;;;4.97;;
71867;SDS011;59738;48.324;14.230;2022-08-01T04:45:16;9.40;;;4.90;;
71867;SDS011;59738;48.324;14.230;2022-08-01T04:47:45;7.35;;;4.60;;
71867;SDS011;59738;48.324;14.230;2022-08-01T04:50:14;9.60;;;5.30;;
71867;SDS011;59738;48.324;14.230;2022-08-01T04:52:44;9.43;;;5.20;;
71867;SDS011;59738;48.324;14.230;2022-08-01T04:55:12;7.90;;;5.07;;
71867;SDS011;59738;48.324;14.230;2022-08-01T04:57:41;9.27;;;5.15;;
71867;SDS011;59738;48.324;14.230;2022-08-01T05:00:11;7.60;;;5.07;;
71867;SDS011;59738;48.324;14.230;2022-08-01T05:02:39;8.73;;;5.20;;
71867;SDS011;59738;48.324;14.230;2022-08-01T05:05:07;7.72;;;4.68;;
71867;SDS011;59738;48.324;14.230;2022-08-01T05:07:36;8.87;;;4.80;;
71867;SDS011;59738;48.324;14.230;2022-08-01T05:10:04;13.80;;;5.70;;
71867;SDS011;59738;48.324;14.230;2022-08-01T05:12:32;8.75;;;5.65;;
71867;SDS011;59738;48.324;14.230;2022-08-01T05:15:03;9.68;;;5.80;;
71867;SDS011;59738;48.324;14.230;2022-08-01T05:17:32;8.00;;;5.53;;
71867;SDS011;59738;48.324;14.230;2022-08-01T05:20:00;10.10;;;5.60;;
71867;SDS011;59738;48.324;14.230;2022-08-01T05:22:27;7.65;;;5.18;;
71867;SDS011;59738;48.324;14.230;2022-08-01T05:24:55;9.57;;;5.40;;
71867;SDS011;59738;48.324;14.230;2022-08-01T05:27:23;10.27;;;6.28;;
71867;SDS011;59738;48.324;14.230;2022-08-01T05:29:50;11.35;;;6.20;;
71867;SDS011;59738;48.324;14.230;2022-08-01T05:32:20;10.37;;;6.10;;
71867;SDS011;59738;48.324;14.230;2022-08-01T05:34:47;11.32;;;6.00;;
71867;SDS011;59738;48.324;14.230;2022-08-01T05:37:15;9.70;;;5.63;;
71867;SDS011;59738;48.324;14.230;2022-08-01T05:39:43;8.82;;;6.00;;
71867;SDS011;59738;48.324;14.230;2022-08-01T05:42:10;8.93;;;5.75;;
71867;SDS011;59738;48.324;14.230;2022-08-01T05:44:38;9.20;;;5.87;;
71867;SDS011;59738;48.324;14.230;2022-08-01T05:47:06;10.05;;;5.78;;
71867;SDS011;59738;48.324;14.230;2022-08-01T05:49:35;11.30;;;6.68;;
71867;SDS011;59738;48.324;14.230;2022-08-01T05:52:03;9.93;;;5.22;;
71867;SDS011;59738;48.324;14.230;2022-08-01T05:54:31;9.38;;;5.97;;
71867;SDS011;59738;48.324;14.230;2022-08-01T05:56:58;11.33;;;5.90;;
71867;SDS011;59738;48.324;14.230;2022-08-01T05:59:27;11.88;;;5.90;;
71867;SDS011;59738;48.324;14.230;2022-08-01T06:01:55;12.10;;;5.80;;
71867;SDS011;59738;48.324;14.230;2022-08-01T06:04:23;8.95;;;5.50;;
71867;SDS011;59738;48.324;14.230;2022-08-01T06:06:52;9.35;;;6.35;;
71867;SDS011;59738;48.324;14.230;2022-08-01T06:09:20;9.23;;;6.00;;
71867;SDS011;59738;48.324;14.230;2022-08-01T06:11:48;8.80;;;6.03;;
71867;SDS011;59738;48.324;14.230;2022-08-01T06:14:15;10.07;;;6.13;;
71867;SDS011;59738;48.324;14.230;2022-08-01T06:16:43;10.65;;;6.43;;
71867;SDS011;59738;48.324;14.230;2022-08-01T06:19:11;8.57;;;5.72;;
71867;SDS011;59738;48.324;14.230;2022-08-01T06:21:38;7.87;;;5.67;;
71867;SDS011;59738;48.324;14.230;2022-08-01T06:24:07;6.80;;;5.00;;
71867;SDS011;59738;48.324;14.230;2022-08-01T06:26:35;12.38;;;5.32;;
71867;SDS011;59738;48.324;14.230;2022-08-01T06:29:03;10.52;;;5.25;;
71867;SDS011;59738;48.324;14.230;2022-08-01T06:31:31;6.97;;;5.07;;
71867;SDS011;59738;48.324;14.230;2022-08-01T06:33:58;7.97;;;5.30;;
71867;SDS011;59738;48.324;14.230;2022-08-01T06:36:26;8.77;;;5.57;;
71867;SDS011;59738;48.324;14.230;2022-08-01T06:38:54;6.63;;;4.95;;
71867;SDS011;59738;48.324;14.230;2022-08-01T06:41:23;7.55;;;4.90;;
71867;SDS011;59738;48.324;14.230;2022-08-01T06:43:51;6.78;;;5.15;;
71867;SDS011;59738;48.324;14.230;2022-08-01T06:46:19;7.27;;;4.93;;
71867;SDS011;59738;48.324;14.230;2022-08-01T06:48:46;7.38;;;5.38;;
71867;SDS011;59738;48.324;14.230;2022-08-01T06:51:14;11.38;;;5.25;;
71867;SDS011;59738;48.324;14.230;2022-08-01T06:53:45;7.90;;;5.38;;
71867;SDS011;59738;48.324;14.230;2022-08-01T06:56:13;6.80;;;5.20;;
71867;SDS011;59738;48.324;14.230;2022-08-01T06:58:42;5.73;;;4.50;;
71867;SDS011;59738;48.324;14.230;2022-08-01T07:01:10;7.13;;;5.10;;
71867;SDS011;59738;48.324;14.230;2022-08-01T07:03:37;8.48;;;5.07;;
71867;SDS011;59738;48.324;14.230;2022-08-01T07:06:05;9.35;;;4.65;;
71867;SDS011;59738;48.324;14.230;2022-08-01T07:08:33;6.43;;;4.90;;
71867;SDS011;59738;48.324;14.230;2022-08-01T07:11:00;7.27;;;4.93;;
71867;SDS011;59738;48.324;14.230;2022-08-01T07:13:30;5.47;;;4.70;;
71867;SDS011;59738;48.324;14.230;2022-08-01T07:16:00;6.40;;;4.90;;
71867;SDS011;59738;48.324;14.230;2022-08-01T07:18:28;5.82;;;5.00;;
71867;SDS011;59738;48.324;14.230;2022-08-01T07:20:56;6.63;;;4.78;;
71867;SDS011;59738;48.324;14.230;2022-08-01T07:23:24;6.70;;;4.50;;
71867;SDS011;59738;48.324;14.230;2022-08-01T07:25:51;7.28;;;4.28;;
71867;SDS011;59738;48.324;14.230;2022-08-01T07:28:19;5.35;;;4.65;;
71867;SDS011;59738;48.324;14.230;2022-08-01T07:30:47;6.80;;;4.22;;
71867;SDS011;59738;48.324;14.230;2022-08-01T07:33:16;5.47;;;4.43;;
71867;SDS011;59738;48.324;14.230;2022-08-01T07:35:43;8.13;;;4.60;;
71867;SDS011;59738;48.324;14.230;2022-08-01T07:38:11;5.18;;;4.63;;
71867;SDS011;59738;48.324;14.230;2022-08-01T07:40:40;5.50;;;4.60;;
71867;SDS011;59738;48.324;14.230;2022-08-01T07:43:08;5.93;;;4.45;;
71867;SDS011;59738;48.324;14.230;2022-08-01T07:45:36;8.05;;;5.40;;
71867;SDS011;59738;48.324;14.230;2022-08-01T07:48:05;6.17;;;4.60;;
71867;SDS011;59738;48.324;14.230;2022-08-01T07:50:34;8.35;;;4.53;;
71867;SDS011;59738;48.324;14.230;2022-08-01T07:53:02;6.65;;;4.72;;
71867;SDS011;59738;48.324;14.230;2022-08-01T07:55:30;8.10;;;4.70;;
71867;SDS011;59738;48.324;14.230;2022-08-01T07:57:58;4.95;;;4.30;;
71867;SDS011;59738;48.324;14.230;2022-08-01T08:00:25;7.30;;;4.40;;
71867;SDS011;59738;48.324;14.230;2022-08-01T08:02:54;5.13;;;4.22;;
71867;SDS011;59738;48.324;14.230;2022-08-01T08:05:24;4.60;;;4.15;;
71867;SDS011;59738;48.324;14.230;2022-08-01T08:07:53;7.40;;;3.80;;
71867;SDS011;59738;48.324;14.230;2022-08-01T08:10:21;8.18;;;4.32;;
71867;SDS011;59738;48.324;14.230;2022-08-01T08:12:49;5.17;;;3.50;;
71867;SDS011;59738;48.324;14.230;2022-08-01T08:15:17;6.60;;;4.07;;
71867;SDS011;59738;48.324;14.230;2022-08-01T08:17:44;6.50;;;4.03;;
71867;SDS011;59738;48.324;14.230;2022-08-01T08:20:13;4.75;;;3.80;;
71867;SDS011;59738;48.324;14.230;2022-08-01T08:22:41;7.22;;;3.65;;
71867;SDS011;59738;48.324;14.230;2022-08-01T08:25:10;8.27;;;3.53;;
71867;SDS011;59738;48.324;14.230;2022-08-01T08:27:39;9.02;;;3.80;;
71867;SDS011;59738;48.324;14.230;2022-08-01T08:30:07;7.05;;;3.80;;
71867;SDS011;59738;48.324;14.230;2022-08-01T08:32:36;5.13;;;3.20;;
71867;SDS011;59738;48.324;14.230;2022-08-01T08:35:05;10.52;;;3.90;;
71867;SDS011;59738;48.324;14.230;2022-08-01T08:37:34;9.50;;;4.63;;
71867;SDS011;59738;48.324;14.230;2022-08-01T08:40:04;6.68;;;3.50;;
71867;SDS011;59738;48.324;14.230;2022-08-01T08:42:34;6.68;;;3.50;;
71867;SDS011;59738;48.324;14.230;2022-08-01T08:45:02;5.05;;;3.60;;
71867;SDS011;59738;48.324;14.230;2022-08-01T08:47:30;5.20;;;3.83;;
71867;SDS011;59738;48.324;14.230;2022-08-01T08:50:01;3.47;;;3.17;;
71867;SDS011;59738;48.324;14.230;2022-08-01T08:52:29;6.03;;;3.40;;
71867;SDS011;59738;48.324;14.230;2022-08-01T08:55:02;4.82;;;3.50;;
71867;SDS011;59738;48.324;14.230;2022-08-01T08:57:30;4.38;;;3.35;;
71867;SDS011;59738;48.324;14.230;2022-08-01T08:59:59;8.10;;;3.58;;
71867;SDS011;59738;48.324;14.230;2022-08-01T09:02:27;5.37;;;3.70;;
71867;SDS011;59738;48.324;14.230;2022-08-01T09:04:55;4.68;;;3.03;;
71867;SDS011;59738;48.324;14.230;2022-08-01T09:07:23;4.47;;;3.63;;
71867;SDS011;59738;48.324;14.230;2022-08-01T09:09:51;3.67;;;3.20;;
71867;SDS011;59738;48.324;14.230;2022-08-01T09:12:19;5.70;;;3.70;;
71867;SDS011;59738;48.324;14.230;2022-08-01T09:14:47;3.60;;;3.30;;
71867;SDS011;59738;48.324;14.230;2022-08-01T09:17:20;5.93;;;3.55;;
71867;SDS011;59738;48.324;14.230;2022-08-01T09:19:48;4.78;;;3.60;;
71867;SDS011;59738;48.324;14.230;2022-08-01T09:22:18;5.07;;;3.50;;
71867;SDS011;59738;48.324;14.230;2022-08-01T09:24:58;4.22;;;3.70;;
71867;SDS011;59738;48.324;14.230;2022-08-01T09:27:28;4.97;;;3.77;;
71867;SDS011;59738;48.324;14.230;2022-08-01T09:30:06;4.88;;;3.47;;
71867;SDS011;59738;48.324;14.230;2022-08-01T09:32:36;3.90;;;3.50;;
71867;SDS011;59738;48.324;14.230;2022-08-01T09:35:22;4.60;;;3.40;;
71867;SDS011;59738;48.324;14.230;2022-08-01T09:37:51;4.95;;;3.83;;
71867;SDS011;59738;48.324;14.230;2022-08-01T09:40:48;5.43;;;3.73;;
71867;SDS011;59738;48.324;14.230;2022-08-01T09:43:18;4.35;;;3.58;;
71867;SDS011;59738;48.324;14.230;2022-08-01T09:45:47;7.43;;;3.50;;
71867;SDS011;59738;48.324;14.230;2022-08-01T09:48:16;5.75;;;3.92;;
71867;SDS011;59738;48.324;14.230;2022-08-01T09:50:45;4.72;;;3.80;;
71867;SDS011;59738;48.324;14.230;2022-08-01T09:53:15;6.03;;;3.60;;
71867;SDS011;59738;48.324;14.230;2022-08-01T09:55:44;7.35;;;3.35;;
71867;SDS011;59738;48.324;14.230;2022-08-01T09:58:12;3.88;;;3.28;;
71867;SDS011;59738;48.324;14.230;2022-08-01T10:00:40;4.75;;;3.50;;
71867;SDS011;59738;48.324;14.230;2022-08-01T10:05:52;4.40;;;3.60;;
71867;SDS011;59738;48.324;14.230;2022-08-01T10:08:20;3.53;;;3.20;;
71867;SDS011;59738;48.324;14.230;2022-08-01T10:11:04;4.30;;;3.70;;
71867;SDS011;59738;48.324;14.230;2022-08-01T10:13:34;4.75;;;3.42;;
71867;SDS011;59738;48.324;14.230;2022-08-01T10:16:02;4.65;;;3.72;;
71867;SDS011;59738;48.324;14.230;2022-08-01T10:18:33;5.57;;;3.53;;
71867;SDS011;59738;48.324;14.230;2022-08-01T10:21:03;6.38;;;3.80;;
71867;SDS011;59738;48.324;14.230;2022-08-01T10:23:33;5.70;;;3.47;;
71867;SDS011;59738;48.324;14.230;2022-08-01T10:26:03;3.92;;;3.42;;
71867;SDS011;59738;48.324;14.230;2022-08-01T10:28:32;4.20;;;3.55;;
71867;SDS011;59738;48.324;14.230;2022-08-01T10:31:02;6.47;;;3.50;;
71867;SDS011;59738;48.324;14.230;2022-08-01T10:33:30;5.45;;;3.53;;
71867;SDS011;59738;48.324;14.230;2022-08-01T10:36:01;6.15;;;3.22;;
71867;SDS011;59738;48.324;14.230;2022-08-01T10:38:29;5.82;;;3.20;;
71867;SDS011;59738;48.324;14.230;2022-08-01T10:40:57;5.22;;;3.47;;
71867;SDS011;59738;48.324;14.230;2022-08-01T10:43:28;5.93;;;3.60;;
71867;SDS011;59738;48.324;14.230;2022-08-01T10:45:56;3.97;;;3.28;;
71867;SDS011;59738;48.324;14.230;2022-08-01T10:48:27;5.10;;;3.50;;
71867;SDS011;59738;48.324;14.230;2022-08-01T10:50:58;4.18;;;3.20;;
71867;SDS011;59738;48.324;14.230;2022-08-01T10:53:30;5.28;;;3.65;;
71867;SDS011;59738;48.324;14.230;2022-08-01T10:55:59;5.87;;;3.53;;
71867;SDS011;59738;48.324;14.230;2022-08-01T10:58:30;5.40;;;3.40;;
71867;SDS011;59738;48.324;14.230;2022-08-01T11:01:15;4.28;;;3.20;;
71867;SDS011;59738;48.324;14.230;2022-08-01T11:03:56;5.93;;;3.25;;
71867;SDS011;59738;48.324;14.230;2022-08-01T11:09:30;3.43;;;2.90;;
71867;SDS011;59738;48.324;14.230;2022-08-01T11:12:06;4.22;;;3.30;;
71867;SDS011;59738;48.324;14.230;2022-08-01T11:17:37;4.20;;;3.20;;
71867;SDS011;59738;48.324;14.230;2022-08-01T11:20:10;5.38;;;3.10;;
71867;SDS011;59738;48.324;14.230;2022-08-01T11:26:09;5.00;;;3.05;;
71867;SDS011;59738;48.324;14.230;2022-08-01T11:28:44;7.03;;;2.90;;
71867;SDS011;59738;48.324;14.230;2022-08-01T11:31:33;4.80;;;2.95;;
71867;SDS011;59738;48.324;14.230;2022-08-01T11:34:01;4.35;;;3.17;;
71867;SDS011;59738;48.324;14.230;2022-08-01T11:36:30;4.77;;;3.10;;
71867;SDS011;59738;48.324;14.230;2022-08-01T11:39:11;4.15;;;3.35;;
71867;SDS011;59738;48.324;14.230;2022-08-01T11:41:48;6.80;;;2.97;;
71867;SDS011;59738;48.324;14.230;2022-08-01T11:44:20;5.53;;;3.20;;
71867;SDS011;59738;48.324;14.230;2022-08-01T11:47:00;5.50;;;2.90;;
71867;SDS011;59738;48.324;14.230;2022-08-01T11:49:31;4.17;;;2.87;;
71867;SDS011;59738;48.324;14.230;2022-08-01T11:52:03;4.10;;;2.70;;
71867;SDS011;59738;48.324;14.230;2022-08-01T11:54:33;2.97;;;2.53;;
71867;SDS011;59738;48.324;14.230;2022-08-01T11:57:05;3.55;;;2.80;;
71867;SDS011;59738;48.324;14.230;2022-08-01T11:59:37;4.60;;;2.97;;
71867;SDS011;59738;48.324;14.230;2022-08-01T12:02:16;3.07;;;2.77;;
71867;SDS011;59738;48.324;14.230;2022-08-01T12:04:49;4.30;;;3.55;;
71867;SDS011;59738;48.324;14.230;2022-08-01T12:07:19;4.18;;;2.65;;
71867;SDS011;59738;48.324;14.230;2022-08-01T12:09:48;3.90;;;2.70;;
71867;SDS011;59738;48.324;14.230;2022-08-01T12:12:26;6.95;;;3.03;;
71867;SDS011;59738;48.324;14.230;2022-08-01T12:14:54;6.17;;;3.07;;
71867;SDS011;59738;48.324;14.230;2022-08-01T12:17:27;4.32;;;2.80;;
71867;SDS011;59738;48.324;14.230;2022-08-01T12:19:56;4.05;;;2.95;;
71867;SDS011;59738;48.324;14.230;2022-08-01T12:22:24;4.78;;;2.92;;
71867;SDS011;59738;48.324;14.230;2022-08-01T12:24:52;3.88;;;2.80;;
71867;SDS011;59738;48.324;14.230;2022-08-01T12:27:23;7.77;;;2.70;;
71867;SDS011;59738;48.324;14.230;2022-08-01T12:29:54;4.25;;;2.83;;
71867;SDS011;59738;48.324;14.230;2022-08-01T12:32:24;4.38;;;3.03;;
71867;SDS011;59738;48.324;14.230;2022-08-01T12:34:53;4.00;;;2.90;;
71867;SDS011;59738;48.324;14.230;2022-08-01T12:37:22;4.82;;;2.90;;
71867;SDS011;59738;48.324;14.230;2022-08-01T12:39:50;4.30;;;2.90;;
71867;SDS011;59738;48.324;14.230;2022-08-01T12:42:18;4.30;;;2.90;;
71867;SDS011;59738;48.324;14.230;2022-08-01T12:44:48;4.60;;;3.17;;
71867;SDS011;59738;48.324;14.230;2022-08-01T12:47:18;4.53;;;2.60;;
71867;SDS011;59738;48.324;14.230;2022-08-01T12:49:47;4.93;;;2.65;;
71867;SDS011;59738;48.324;14.230;2022-08-01T12:52:15;3.03;;;2.73;;
71867;SDS011;59738;48.324;14.230;2022-08-01T12:55:00;2.63;;;2.42;;
71867;SDS011;59738;48.324;14.230;2022-08-01T12:57:29;2.90;;;2.53;;
71867;SDS011;59738;48.324;14.230;2022-08-01T13:02:59;3.55;;;2.60;;
71867;SDS011;59738;48.324;14.230;2022-08-01T13:05:40;5.97;;;2.40;;
71867;SDS011;59738;48.324;14.230;2022-08-01T13:08:09;7.80;;;2.50;;
71867;SDS011;59738;48.324;14.230;2022-08-01T13:10:38;11.32;;;2.85;;
71867;SDS011;59738;48.324;14.230;2022-08-01T13:13:07;8.27;;;2.40;;
71867;SDS011;59738;48.324;14.230;2022-08-01T13:15:37;5.80;;;2.70;;
71867;SDS011;59738;48.324;14.230;2022-08-01T13:18:22;7.33;;;2.30;;
71867;SDS011;59738;48.324;14.230;2022-08-01T13:21:01;4.93;;;2.22;;
71867;SDS011;59738;48.324;14.230;2022-08-01T13:23:34;2.40;;;2.20;;
71867;SDS011;59738;48.324;14.230;2022-08-01T13:26:03;4.95;;;2.15;;
71867;SDS011;59738;48.324;14.230;2022-08-01T13:28:31;3.22;;;2.25;;
71867;SDS011;59738;48.324;14.230;2022-08-01T13:31:02;2.20;;;1.87;;
71867;SDS011;59738;48.324;14.230;2022-08-01T13:33:40;3.08;;;2.17;;
71867;SDS011;59738;48.324;14.230;2022-08-01T13:36:10;2.30;;;2.00;;
71867;SDS011;59738;48.324;14.230;2022-08-01T13:38:38;2.30;;;1.92;;
71867;SDS011;59738;48.324;14.230;2022-08-01T13:41:23;2.15;;;1.80;;
71867;SDS011;59738;48.324;14.230;2022-08-01T13:43:51;3.40;;;1.50;;
71867;SDS011;59738;48.324;14.230;2022-08-01T13:46:22;3.25;;;1.80;;
71867;SDS011;59738;48.324;14.230;2022-08-01T13:48:49;3.13;;;2.05;;
71867;SDS011;59738;48.324;14.230;2022-08-01T13:51:17;2.58;;;2.30;;
71867;SDS011;59738;48.324;14.230;2022-08-01T13:53:45;3.42;;;2.60;;
71867;SDS011;59738;48.324;14.230;2022-08-01T13:56:12;3.40;;;2.57;;
71867;SDS011;59738;48.324;14.230;2022-08-01T13:58:41;3.60;;;2.90;;
71867;SDS011;59738;48.324;14.230;2022-08-01T14:01:09;3.65;;;2.90;;
71867;SDS011;59738;48.324;14.230;2022-08-01T14:03:38;2.67;;;2.45;;
71867;SDS011;59738;48.324;14.230;2022-08-01T14:06:06;3.20;;;2.70;;
71867;SDS011;59738;48.324;14.230;2022-08-01T14:08:34;3.77;;;2.40;;
71867;SDS011;59738;48.324;14.230;2022-08-01T14:11:02;3.72;;;2.83;;
71867;SDS011;59738;48.324;14.230;2022-08-01T14:13:29;2.92;;;2.42;;
71867;SDS011;59738;48.324;14.230;2022-08-01T14:15:59;3.38;;;2.67;;
71867;SDS011;59738;48.324;14.230;2022-08-01T14:18:26;2.55;;;2.25;;
71867;SDS011;59738;48.324;14.230;2022-08-01T14:20:56;4.13;;;2.50;;
71867;SDS011;59738;48.324;14.230;2022-08-01T14:23:23;2.92;;;2.50;;
71867;SDS011;59738;48.324;14.230;2022-08-01T14:25:51;4.07;;;2.30;;
71867;SDS011;59738;48.324;14.230;2022-08-01T14:28:19;3.33;;;2.53;;
71867;SDS011;59738;48.324;14.230;2022-08-01T14:30:47;3.33;;;2.08;;
71867;SDS011;59738;48.324;14.230;2022-08-01T14:33:15;3.93;;;1.90;;
71867;SDS011;59738;48.324;14.230;2022-08-01T14:35:43;2.53;;;2.00;;
71867;SDS011;59738;48.324;14.230;2022-08-01T14:38:12;3.50;;;2.47;;
71867;SDS011;59738;48.324;14.230;2022-08-01T14:40:41;5.55;;;2.60;;
71867;SDS011;59738;48.324;14.230;2022-08-01T14:43:09;4.60;;;2.30;;
71867;SDS011;59738;48.324;14.230;2022-08-01T14:45:38;2.30;;;2.10;;
71867;SDS011;59738;48.324;14.230;2022-08-01T14:48:06;5.30;;;2.38;;
71867;SDS011;59738;48.324;14.230;2022-08-01T14:50:35;3.65;;;2.40;;
71867;SDS011;59738;48.324;14.230;2022-08-01T14:53:02;4.90;;;2.35;;
71867;SDS011;59738;48.324;14.230;2022-08-01T14:55:32;3.15;;;2.35;;
71867;SDS011;59738;48.324;14.230;2022-08-01T14:57:59;2.67;;;2.37;;
71867;SDS011;59738;48.324;14.230;2022-08-01T15:00:27;2.50;;;2.30;;
71867;SDS011;59738;48.324;14.230;2022-08-01T15:02:55;2.90;;;2.22;;